createdAt,value
2022-12-18T00:00:07.829Z,37.93
2022-12-18T00:02:41.839Z,37.33
2022-12-18T00:05:11.392Z,36.87
2022-12-18T00:07:39.900Z,37.43
2022-12-18T00:10:09.010Z,35.23
2022-12-18T00:12:37.027Z,35.67
2022-12-18T00:15:05.716Z,37.40
2022-12-18T00:17:33.723Z,36.17
2022-12-18T00:20:01.751Z,37.53
2022-12-18T00:22:31.126Z,36.93
2022-12-18T00:24:59.124Z,37.00
2022-12-18T00:27:27.158Z,35.07
2022-12-18T00:29:55.162Z,36.27
2022-12-18T00:32:23.355Z,37.13
2022-12-18T00:34:51.352Z,38.53
2022-12-18T00:37:20.448Z,35.57
2022-12-18T00:39:53.915Z,37.57
2022-12-18T00:42:39.591Z,36.60
2022-12-18T00:45:12.638Z,34.60
2022-12-18T00:47:41.605Z,35.93
2022-12-18T00:50:11.293Z,35.40
2022-12-18T00:52:39.338Z,37.30
2022-12-18T00:55:09.909Z,37.27
2022-12-18T00:57:38.029Z,37.93
2022-12-18T01:00:08.523Z,36.63
2022-12-18T01:02:36.810Z,35.20
2022-12-18T01:05:05.387Z,35.40
2022-12-18T01:07:33.402Z,39.47
2022-12-18T01:10:01.428Z,43.20
2022-12-18T01:12:30.884Z,39.73
2022-12-18T01:14:58.900Z,37.43
2022-12-18T01:17:26.944Z,39.07
2022-12-18T01:19:55.026Z,36.03
2022-12-18T01:22:23.111Z,35.07
2022-12-18T01:24:51.249Z,36.83
2022-12-18T01:27:19.321Z,33.60
2022-12-18T01:29:50.989Z,34.00
2022-12-18T01:32:21.160Z,35.97
2022-12-18T01:34:49.221Z,35.07
2022-12-18T01:37:17.213Z,33.87
2022-12-18T01:39:45.305Z,36.07
2022-12-18T01:42:16.591Z,35.27
2022-12-18T01:45:05.488Z,34.50
2022-12-18T01:47:37.641Z,35.57
2022-12-18T01:50:10.193Z,35.63
2022-12-18T01:52:39.199Z,35.00
2022-12-18T01:55:09.153Z,35.53
2022-12-18T01:57:37.817Z,33.63
2022-12-18T02:00:10.262Z,34.77
2022-12-18T02:02:42.217Z,34.80
2022-12-18T02:05:12.085Z,33.77
2022-12-18T02:07:48.441Z,32.57
2022-12-18T02:10:22.756Z,32.43
2022-12-18T02:13:09.093Z,33.17
2022-12-18T02:15:42.708Z,32.83
2022-12-18T02:18:14.219Z,32.27
2022-12-18T02:20:48.228Z,32.77
2022-12-18T02:23:33.458Z,32.50
2022-12-18T02:26:09.761Z,32.37
2022-12-18T02:28:43.350Z,33.43
2022-12-18T02:31:16.921Z,31.93
2022-12-18T02:33:47.313Z,31.17
2022-12-18T02:36:18.291Z,32.37
2022-12-18T02:38:48.752Z,32.13
2022-12-18T02:41:20.483Z,31.77
2022-12-18T02:43:58.059Z,33.23
2022-12-18T02:46:32.584Z,32.07
2022-12-18T02:49:16.975Z,30.87
2022-12-18T02:51:54.798Z,31.27
2022-12-18T02:54:35.305Z,31.53
2022-12-18T02:57:12.732Z,30.40
2022-12-18T02:59:49.738Z,32.73
2022-12-18T03:02:24.725Z,29.87
2022-12-18T03:05:00.531Z,30.53
2022-12-18T03:07:36.154Z,29.40
2022-12-18T03:10:08.979Z,32.00
2022-12-18T03:12:45.075Z,31.60
2022-12-18T03:15:18.177Z,30.07
2022-12-18T03:17:54.147Z,31.40
2022-12-18T03:20:24.803Z,28.90
2022-12-18T03:23:02.100Z,31.40
2022-12-18T03:25:32.608Z,31.23
2022-12-18T03:28:04.237Z,30.17
2022-12-18T03:30:34.657Z,30.37
2022-12-18T03:33:09.929Z,30.20
2022-12-18T03:35:42.077Z,31.07
2022-12-18T03:38:11.266Z,31.13
2022-12-18T03:40:55.225Z,30.37
2022-12-18T03:43:37.090Z,32.27
2022-12-18T03:46:10.128Z,30.37
2022-12-18T03:48:44.152Z,29.53
2022-12-18T03:51:20.909Z,30.13
2022-12-18T03:53:55.605Z,31.47
2022-12-18T03:56:32.719Z,29.90
2022-12-18T03:59:05.181Z,30.10
2022-12-18T04:01:37.473Z,29.73
2022-12-18T04:04:08.114Z,28.67
2022-12-18T04:06:40.765Z,30.83
2022-12-18T04:09:11.710Z,31.07
2022-12-18T04:11:45.452Z,29.47
2022-12-18T04:14:18.264Z,29.00
2022-12-18T04:16:50.026Z,29.87
2022-12-18T04:19:20.548Z,30.60
2022-12-18T04:21:51.597Z,28.30
2022-12-18T04:24:19.786Z,28.73
2022-12-18T04:26:59.409Z,28.43
2022-12-18T04:29:34.514Z,29.33
2022-12-18T04:32:02.793Z,28.90
2022-12-18T04:34:32.772Z,28.57
2022-12-18T04:37:00.852Z,29.57
2022-12-18T04:39:28.853Z,29.00
2022-12-18T04:42:01.543Z,29.47
2022-12-18T04:44:30.050Z,30.37
2022-12-18T04:46:59.521Z,27.83
2022-12-18T04:49:27.550Z,30.17
2022-12-18T04:51:55.816Z,28.50
2022-12-18T04:54:23.809Z,28.83
2022-12-18T04:56:52.184Z,26.87
2022-12-18T04:59:20.515Z,28.37
2022-12-18T05:01:48.685Z,28.93
2022-12-18T05:04:18.218Z,27.73
2022-12-18T05:06:46.505Z,27.70
2022-12-18T05:09:14.545Z,27.90
2022-12-18T05:11:42.603Z,27.03
2022-12-18T05:14:10.613Z,26.53
2022-12-18T05:16:38.613Z,26.93
2022-12-18T05:19:06.682Z,24.97
2022-12-18T05:21:36.219Z,26.10
2022-12-18T05:24:04.412Z,25.47
2022-12-18T05:26:32.384Z,25.73
2022-12-18T05:29:00.392Z,26.67
2022-12-18T05:31:28.780Z,24.40
2022-12-18T05:33:56.867Z,24.07
2022-12-18T05:36:24.871Z,23.70
2022-12-18T05:38:54.264Z,24.73
2022-12-18T05:41:22.237Z,25.10
2022-12-18T05:43:50.242Z,23.57
2022-12-18T05:46:20.206Z,24.53
2022-12-18T05:48:49.191Z,23.20
2022-12-18T05:51:20.127Z,23.47
2022-12-18T05:53:49.175Z,22.83
2022-12-18T05:56:21.571Z,23.80
2022-12-18T05:58:49.732Z,22.37
2022-12-18T06:01:19.637Z,23.67
2022-12-18T06:03:48.128Z,22.80
2022-12-18T06:06:17.496Z,22.43
2022-12-18T06:08:46.649Z,22.67
2022-12-18T06:11:15.348Z,21.70
2022-12-18T06:13:44.737Z,22.77
2022-12-18T06:16:12.743Z,20.60
2022-12-18T06:18:41.018Z,21.10
2022-12-18T06:21:09.086Z,21.93
2022-12-18T06:23:38.041Z,21.73
2022-12-18T06:26:08.823Z,20.53
2022-12-18T06:28:37.175Z,21.33
2022-12-18T06:31:07.988Z,20.73
2022-12-18T06:33:36.121Z,20.47
2022-12-18T06:36:06.631Z,20.57
2022-12-18T06:38:36.350Z,21.50
2022-12-18T06:41:09.056Z,20.60
2022-12-18T06:43:37.651Z,20.60
2022-12-18T06:46:08.217Z,20.90
2022-12-18T06:48:36.448Z,20.87
2022-12-18T06:51:05.169Z,20.30
2022-12-18T06:53:34.132Z,19.30
2022-12-18T06:56:09.236Z,19.53
2022-12-18T06:58:37.793Z,19.83
2022-12-18T07:01:09.583Z,20.17
2022-12-18T07:03:38.570Z,18.97
2022-12-18T07:06:07.354Z,21.23
2022-12-18T07:08:35.379Z,20.53
2022-12-18T07:11:06.121Z,20.33
2022-12-18T07:13:34.165Z,18.60
2022-12-18T07:16:16.009Z,20.77
2022-12-18T07:18:47.121Z,20.93
2022-12-18T07:21:17.711Z,19.40
2022-12-18T07:23:48.866Z,20.43
2022-12-18T07:26:21.277Z,19.43
2022-12-18T07:28:49.490Z,17.90
2022-12-18T07:31:22.396Z,18.90
2022-12-18T07:33:51.561Z,18.90
2022-12-18T07:36:25.268Z,18.93
2022-12-18T07:38:54.031Z,17.57
2022-12-18T07:41:22.576Z,17.40
2022-12-18T07:43:50.883Z,18.60
2022-12-18T07:46:20.649Z,17.97
2022-12-18T07:48:49.983Z,17.53
2022-12-18T07:51:19.574Z,17.40
2022-12-18T07:53:49.698Z,17.93
2022-12-18T07:56:30.389Z,16.53
2022-12-18T07:58:59.887Z,17.83
2022-12-18T08:01:31.964Z,16.57
2022-12-18T08:04:00.200Z,17.33
2022-12-18T08:06:28.211Z,17.00
2022-12-18T08:08:57.301Z,15.53
2022-12-18T08:11:27.031Z,14.90
2022-12-18T08:13:55.655Z,16.07
2022-12-18T08:16:25.421Z,15.53
2022-12-18T08:18:55.595Z,15.53
2022-12-18T08:21:25.620Z,15.27
2022-12-18T08:23:54.999Z,14.80
2022-12-18T08:26:23.668Z,14.37
2022-12-18T08:28:52.515Z,16.23
2022-12-18T08:31:21.287Z,15.30
2022-12-18T08:33:51.415Z,14.77
2022-12-18T08:36:21.460Z,14.57
2022-12-18T08:38:49.676Z,13.83
2022-12-18T08:41:19.143Z,13.83
2022-12-18T08:44:05.068Z,13.83
2022-12-18T08:46:38.625Z,13.10
2022-12-18T08:49:07.726Z,14.17
2022-12-18T08:51:37.781Z,13.33
2022-12-18T08:54:06.980Z,12.87
2022-12-18T08:56:35.321Z,13.77
2022-12-18T08:59:03.699Z,13.73
2022-12-18T09:01:32.565Z,12.53
2022-12-18T09:04:01.747Z,14.50
2022-12-18T09:06:29.762Z,15.73
2022-12-18T09:08:59.563Z,13.93
2022-12-18T09:11:30.361Z,12.20
2022-12-18T09:13:58.881Z,12.30
2022-12-18T09:16:32.233Z,11.80
2022-12-18T09:19:01.555Z,12.70
2022-12-18T09:21:31.740Z,12.03
2022-12-18T09:24:02.957Z,12.33
2022-12-18T09:26:31.631Z,12.00
2022-12-18T09:28:59.667Z,12.53
2022-12-18T09:31:27.714Z,15.77
2022-12-18T09:33:57.293Z,16.50
2022-12-18T09:36:25.398Z,14.40
2022-12-18T09:38:54.202Z,16.10
2022-12-18T09:41:38.347Z,15.27
2022-12-18T09:44:14.747Z,11.83
2022-12-18T09:46:46.789Z,13.03
2022-12-18T09:49:19.713Z,12.60
2022-12-18T09:51:54.998Z,11.93
2022-12-18T09:54:27.427Z,11.53
2022-12-18T09:56:57.444Z,11.27
2022-12-18T09:59:29.184Z,11.10
2022-12-18T10:01:58.734Z,11.30
2022-12-18T10:04:32.971Z,12.07
2022-12-18T10:07:09.400Z,11.77
2022-12-18T10:09:43.562Z,11.23
2022-12-18T10:12:23.395Z,12.10
2022-12-18T10:14:57.305Z,10.63
2022-12-18T10:17:35.906Z,13.43
2022-12-18T10:20:07.464Z,12.30
2022-12-18T10:22:49.842Z,21.07
2022-12-18T10:25:26.315Z,11.93
2022-12-18T10:27:59.286Z,13.97
2022-12-18T10:30:27.983Z,20.07
2022-12-18T10:32:57.199Z,22.80
2022-12-18T10:35:27.783Z,13.77
2022-12-18T10:38:07.856Z,11.70
2022-12-18T10:40:50.715Z,20.67
2022-12-18T10:43:23.999Z,11.63
2022-12-18T10:46:14.063Z,11.27
2022-12-18T10:48:50.000Z,10.20
2022-12-18T10:51:22.956Z,10.23
2022-12-18T10:53:56.632Z,10.50
2022-12-18T10:56:26.920Z,10.27
2022-12-18T10:59:01.744Z,11.23
2022-12-18T11:01:47.545Z,12.20
2022-12-18T11:04:21.115Z,12.47
2022-12-18T11:06:57.902Z,10.77
2022-12-18T11:09:27.829Z,10.23
2022-12-18T11:11:58.169Z,8.77
2022-12-18T11:14:29.676Z,10.37
2022-12-18T11:19:55.225Z,9.37
2022-12-18T11:22:27.434Z,10.17
2022-12-18T11:27:51.430Z,11.03
2022-12-18T11:30:26.521Z,11.40
2022-12-18T11:32:57.977Z,11.17
2022-12-18T11:35:36.758Z,11.13
2022-12-18T11:38:12.913Z,15.37
2022-12-18T11:40:46.148Z,12.20
2022-12-18T11:43:18.974Z,11.93
2022-12-18T11:45:54.815Z,12.43
2022-12-18T11:48:27.084Z,11.40
2022-12-18T11:50:56.800Z,12.23
2022-12-18T11:53:26.327Z,21.10
2022-12-18T11:56:21.869Z,16.73
2022-12-18T11:58:55.150Z,15.33
2022-12-18T12:01:44.009Z,17.87
2022-12-18T12:04:43.178Z,13.17
2022-12-18T12:07:23.373Z,10.63
2022-12-18T12:10:01.874Z,11.97
2022-12-18T12:12:51.164Z,10.93
2022-12-18T12:15:36.773Z,12.13
2022-12-18T12:18:15.780Z,12.43
2022-12-18T12:20:53.409Z,13.10
2022-12-18T12:23:32.379Z,13.27
2022-12-18T12:26:05.065Z,12.90
2022-12-18T12:28:58.568Z,13.57
2022-12-18T12:31:39.589Z,11.37
2022-12-18T12:34:19.076Z,12.20
2022-12-18T12:36:59.885Z,14.87
2022-12-18T12:39:34.066Z,11.83
2022-12-18T12:42:20.197Z,10.07
2022-12-18T12:44:56.205Z,11.07
2022-12-18T12:47:28.920Z,10.43
2022-12-18T12:50:00.754Z,10.57
2022-12-18T12:52:36.342Z,10.73
2022-12-18T12:55:14.459Z,11.37
2022-12-18T12:57:48.024Z,10.00
2022-12-18T13:00:20.245Z,11.07
2022-12-18T13:02:54.789Z,11.30
2022-12-18T13:05:28.959Z,10.20
2022-12-18T13:08:01.377Z,10.67
2022-12-18T13:10:35.393Z,11.53
2022-12-18T13:13:05.548Z,11.43
2022-12-18T13:15:41.846Z,11.57
2022-12-18T13:18:19.518Z,10.23
2022-12-18T13:20:54.399Z,10.80
2022-12-18T13:23:42.834Z,10.40
2022-12-18T13:26:37.970Z,11.60
2022-12-18T13:29:07.123Z,10.57
2022-12-18T13:32:05.611Z,9.67
2022-12-18T13:34:37.385Z,10.70
2022-12-18T13:37:43.957Z,10.77
2022-12-18T13:40:57.525Z,9.93
2022-12-18T13:43:38.611Z,9.90
2022-12-18T13:46:21.385Z,9.80
2022-12-18T13:48:59.659Z,10.50
2022-12-18T13:51:28.729Z,12.00
2022-12-18T13:54:00.107Z,12.40
2022-12-18T13:56:29.909Z,14.60
2022-12-18T13:59:24.610Z,17.53
2022-12-18T14:01:55.576Z,15.27
2022-12-18T14:04:26.549Z,15.03
2022-12-18T14:06:57.514Z,14.80
2022-12-18T14:09:29.156Z,15.80
2022-12-18T14:12:13.126Z,18.90
2022-12-18T14:14:46.440Z,15.13
2022-12-18T14:17:17.935Z,10.93
2022-12-18T14:19:48.505Z,10.90
2022-12-18T14:22:19.243Z,10.97
2022-12-18T14:24:47.874Z,10.23
2022-12-18T14:27:24.119Z,10.70
2022-12-18T14:29:53.861Z,10.37
2022-12-18T14:32:23.496Z,9.57
2022-12-18T14:34:52.968Z,10.63
2022-12-18T14:37:25.199Z,10.90
2022-12-18T14:39:59.090Z,9.93
2022-12-18T14:42:29.364Z,10.13
2022-12-18T14:45:41.347Z,9.40
2022-12-18T14:48:19.098Z,9.07
2022-12-18T14:51:00.447Z,8.73
2022-12-18T14:53:36.927Z,9.33
2022-12-18T14:56:12.424Z,8.77
2022-12-18T14:58:40.833Z,8.60
2022-12-18T15:01:10.459Z,9.00
2022-12-18T15:03:45.908Z,8.00
2022-12-18T15:06:19.776Z,9.23
2022-12-18T15:08:48.575Z,8.13
2022-12-18T15:11:31.776Z,8.17
2022-12-18T15:14:01.743Z,7.73
2022-12-18T15:16:31.452Z,9.03
2022-12-18T15:18:59.764Z,8.60
2022-12-18T15:21:31.667Z,8.27
2022-12-18T15:24:01.509Z,7.50
2022-12-18T15:26:39.620Z,8.00
2022-12-18T15:29:11.366Z,7.83
2022-12-18T15:31:46.530Z,7.10
2022-12-18T15:34:21.343Z,7.53
2022-12-18T15:36:49.711Z,6.90
2022-12-18T15:39:18.264Z,7.43
2022-12-18T15:42:00.752Z,7.80
2022-12-18T15:44:29.435Z,10.27
2022-12-18T15:46:59.188Z,7.20
2022-12-18T15:49:27.742Z,7.30
2022-12-18T15:51:58.786Z,7.00
2022-12-18T15:54:41.073Z,6.90
2022-12-18T15:57:27.586Z,8.27
2022-12-18T15:59:59.512Z,8.80
2022-12-18T16:02:30.101Z,7.30
2022-12-18T16:04:58.789Z,8.37
2022-12-18T16:07:30.309Z,7.10
2022-12-18T16:10:02.697Z,7.80
2022-12-18T16:12:31.150Z,8.40
2022-12-18T16:14:59.459Z,8.30
2022-12-18T16:17:29.176Z,7.43
2022-12-18T16:19:57.460Z,7.53
2022-12-18T16:22:27.850Z,10.50
2022-12-18T16:24:57.294Z,10.90
2022-12-18T16:27:26.629Z,8.90
2022-12-18T16:29:54.987Z,8.53
2022-12-18T16:32:24.813Z,10.60
2022-12-18T16:34:54.762Z,10.20
2022-12-18T16:37:23.023Z,7.93
2022-12-18T16:39:51.225Z,9.53
2022-12-18T16:42:21.473Z,8.03
2022-12-18T16:44:51.151Z,8.00
2022-12-18T16:47:24.887Z,7.47
2022-12-18T16:49:56.778Z,7.47
2022-12-18T16:52:25.887Z,7.77
2022-12-18T16:54:54.224Z,7.27
2022-12-18T16:57:25.333Z,7.60
2022-12-18T16:59:54.235Z,7.97
2022-12-18T17:02:24.521Z,7.80
2022-12-18T17:04:56.753Z,7.13
2022-12-18T17:07:25.434Z,6.97
2022-12-18T17:09:54.329Z,8.63
2022-12-18T17:12:23.314Z,9.20
2022-12-18T17:14:51.533Z,8.10
2022-12-18T17:17:22.817Z,7.80
2022-12-18T17:19:51.527Z,7.70
2022-12-18T17:22:21.541Z,9.17
2022-12-18T17:24:49.910Z,8.17
2022-12-18T17:27:18.200Z,7.27
2022-12-18T17:29:48.227Z,7.00
2022-12-18T17:32:17.034Z,6.80
2022-12-18T17:34:45.306Z,7.40
2022-12-18T17:37:13.742Z,7.17
2022-12-18T17:39:43.546Z,9.47
2022-12-18T17:42:15.021Z,6.80
2022-12-18T17:44:44.516Z,8.33
2022-12-18T17:47:13.248Z,7.73
2022-12-18T17:49:42.022Z,7.93
2022-12-18T17:52:10.492Z,6.40
2022-12-18T17:54:41.516Z,9.70
2022-12-18T17:57:11.477Z,8.43
2022-12-18T17:59:39.796Z,8.93
2022-12-18T18:02:08.536Z,13.10
2022-12-18T18:04:37.091Z,9.90
2022-12-18T18:07:05.326Z,17.70
2022-12-18T18:09:33.896Z,18.83
2022-12-18T18:12:19.873Z,7.50
2022-12-18T18:14:49.705Z,8.43
2022-12-18T18:17:18.425Z,6.90
2022-12-18T18:19:49.634Z,8.60
2022-12-18T18:22:18.731Z,7.23
2022-12-18T18:24:47.363Z,7.17
2022-12-18T18:27:16.357Z,8.30
2022-12-18T18:29:45.155Z,7.67
2022-12-18T18:32:14.815Z,7.13
2022-12-18T18:34:43.107Z,6.77
2022-12-18T18:37:12.228Z,6.33
2022-12-18T18:39:40.743Z,7.27
2022-12-18T18:42:09.158Z,7.60
2022-12-18T18:44:37.868Z,7.90
2022-12-18T18:47:06.331Z,7.20
2022-12-18T18:49:39.281Z,6.60
2022-12-18T18:52:08.348Z,6.23
2022-12-18T18:54:36.623Z,7.00
2022-12-18T18:57:20.241Z,7.60
2022-12-18T18:59:49.595Z,7.40
2022-12-18T19:02:19.026Z,7.67
2022-12-18T19:04:48.714Z,6.33
2022-12-18T19:07:26.142Z,7.33
2022-12-18T19:10:04.110Z,11.67
2022-12-18T19:12:51.966Z,7.97
2022-12-18T19:15:20.323Z,7.90
2022-12-18T19:17:48.614Z,8.13
2022-12-18T19:20:18.577Z,8.40
2022-12-18T19:22:55.217Z,7.90
2022-12-18T19:25:40.411Z,7.30
2022-12-18T19:28:17.367Z,7.70
2022-12-18T19:30:56.351Z,7.50
2022-12-18T19:33:45.204Z,7.43
2022-12-18T19:36:19.611Z,7.50
2022-12-18T19:38:48.191Z,7.70
2022-12-18T19:41:17.906Z,8.63
2022-12-18T19:43:47.513Z,7.23
2022-12-18T19:46:17.986Z,7.33
2022-12-18T19:48:47.308Z,7.07
2022-12-18T19:51:18.777Z,6.97
2022-12-18T19:53:47.716Z,7.07
2022-12-18T19:56:18.027Z,7.80
2022-12-18T19:58:46.633Z,16.57
2022-12-18T20:01:16.890Z,7.90
2022-12-18T20:03:50.445Z,8.07
2022-12-18T20:06:27.790Z,8.00
2022-12-18T20:09:00.447Z,8.57
2022-12-18T20:11:30.144Z,14.30
2022-12-18T20:13:58.607Z,11.60
2022-12-18T20:16:30.216Z,14.67
2022-12-18T20:18:59.323Z,11.00
2022-12-18T20:21:29.060Z,23.60
2022-12-18T20:23:59.123Z,7.77
2022-12-18T20:26:27.657Z,8.60
2022-12-18T20:28:56.234Z,8.70
2022-12-18T20:31:24.731Z,7.93
2022-12-18T20:33:53.356Z,10.60
2022-12-18T20:36:28.185Z,17.40
2022-12-18T20:39:01.819Z,11.27
2022-12-18T20:41:35.035Z,13.33
2022-12-18T20:44:10.983Z,13.93
2022-12-18T20:46:51.033Z,10.33
2022-12-18T20:49:19.292Z,30.27
2022-12-18T20:51:50.410Z,16.23
2022-12-18T20:54:20.110Z,11.63
2022-12-18T20:56:48.495Z,12.17
2022-12-18T20:59:16.694Z,10.20
2022-12-18T21:01:48.605Z,9.70
2022-12-18T21:04:18.655Z,8.40
2022-12-18T21:06:53.093Z,8.67
2022-12-18T21:09:25.570Z,8.43
2022-12-18T21:12:14.148Z,10.47
2022-12-18T21:14:43.238Z,8.13
2022-12-18T21:17:12.305Z,8.60
2022-12-18T21:19:40.701Z,10.30
2022-12-18T21:22:09.660Z,9.67
2022-12-18T21:24:39.491Z,10.83
2022-12-18T21:27:07.751Z,12.90
2022-12-18T21:29:36.268Z,11.20
2022-12-18T21:32:05.758Z,9.50
2022-12-18T21:34:34.534Z,9.93
2022-12-18T21:37:03.128Z,10.50
2022-12-18T21:39:31.926Z,11.80
2022-12-18T21:42:18.890Z,9.47
2022-12-18T21:44:49.407Z,10.17
2022-12-18T21:47:22.552Z,9.70
2022-12-18T21:49:53.194Z,10.73
2022-12-18T21:52:29.823Z,10.00
2022-12-18T21:55:08.015Z,9.87
2022-12-18T21:57:39.503Z,10.77
2022-12-18T22:00:18.430Z,9.17
2022-12-18T22:02:48.473Z,9.60
2022-12-18T22:05:36.225Z,10.23
2022-12-18T22:08:04.603Z,9.23
2022-12-18T22:10:33.332Z,9.57
2022-12-18T22:13:03.017Z,10.03
2022-12-18T22:15:31.358Z,9.83
2022-12-18T22:18:00.249Z,9.97
2022-12-18T22:20:29.709Z,9.57
2022-12-18T22:22:58.601Z,10.07
2022-12-18T22:25:27.617Z,9.60
2022-12-18T22:28:13.233Z,10.27
2022-12-18T22:30:42.684Z,10.23
2022-12-18T22:33:10.711Z,8.93
2022-12-18T22:35:38.780Z,9.20
2022-12-18T22:38:07.017Z,10.07
2022-12-18T22:40:35.033Z,10.00
2022-12-18T22:43:03.134Z,10.27
2022-12-18T22:45:31.181Z,10.43
2022-12-18T22:48:02.028Z,9.50
2022-12-18T22:50:30.191Z,11.20
2022-12-18T22:52:58.160Z,11.33
2022-12-18T22:55:26.199Z,11.63
2022-12-18T22:57:54.244Z,11.30
2022-12-18T23:00:24.119Z,10.47
2022-12-18T23:02:59.352Z,10.70
2022-12-18T23:05:30.608Z,11.57
2022-12-18T23:07:59.233Z,10.90
2022-12-18T23:10:27.522Z,10.47
2022-12-18T23:12:55.829Z,12.77
2022-12-18T23:15:27.929Z,11.37
2022-12-18T23:17:57.214Z,11.97
2022-12-18T23:20:25.429Z,11.03
2022-12-18T23:22:54.801Z,12.57
2022-12-18T23:25:22.839Z,12.80
2022-12-18T23:27:50.843Z,12.37
2022-12-18T23:30:19.034Z,12.27
2022-12-18T23:32:47.147Z,11.67
2022-12-18T23:35:15.868Z,13.53
2022-12-18T23:38:00.676Z,13.37
2022-12-18T23:40:31.013Z,13.30
2022-12-18T23:43:00.425Z,13.77
2022-12-18T23:45:28.496Z,14.43
2022-12-18T23:47:56.526Z,13.93
2022-12-18T23:50:29.041Z,13.67
2022-12-18T23:53:05.317Z,14.80
2022-12-18T23:55:39.688Z,14.77
2022-12-18T23:58:08.599Z,13.80
